createdAt,value
2018-03-24T00:00:06.976Z,0
2018-03-24T00:01:06.395Z,0
2018-03-24T00:02:06.652Z,0
2018-03-24T00:03:06.945Z,0
2018-03-24T00:04:06.998Z,0
2018-03-24T00:05:06.650Z,0
2018-03-24T00:06:06.034Z,0
2018-03-24T00:07:06.817Z,0
2018-03-24T00:08:06.533Z,0
2018-03-24T00:09:06.514Z,0
2018-03-24T00:10:06.771Z,0
2018-03-24T00:11:06.467Z,0
2018-03-24T00:12:06.458Z,0
2018-03-24T00:13:06.436Z,0
2018-03-24T00:14:06.414Z,0
2018-03-24T00:15:06.452Z,0
2018-03-24T00:16:07.023Z,0
2018-03-24T00:17:06.629Z,0
2018-03-24T00:18:06.598Z,0
2018-03-24T00:19:06.619Z,0
2018-03-24T00:20:06.668Z,0
2018-03-24T00:21:06.535Z,0
2018-03-24T00:22:05.990Z,0
2018-03-24T00:23:06.768Z,0
2018-03-24T00:24:06.850Z,0
2018-03-24T00:25:06.574Z,0
2018-03-24T00:26:06.487Z,0
2018-03-24T00:27:06.159Z,0
2018-03-24T00:28:06.666Z,0
2018-03-24T00:29:06.380Z,0
2018-03-24T00:30:06.206Z,0
2018-03-24T00:31:05.844Z,0
2018-03-24T00:32:05.850Z,0
2018-03-24T00:33:06.096Z,0
2018-03-24T00:34:06.279Z,0
2018-03-24T00:35:06.041Z,0
2018-03-24T00:36:05.979Z,0
2018-03-24T00:37:05.415Z,0
2018-03-24T00:38:06.464Z,0
2018-03-24T00:39:05.906Z,0
2018-03-24T00:40:05.894Z,0
2018-03-24T00:41:05.332Z,0
2018-03-24T00:42:05.897Z,0
2018-03-24T00:43:05.835Z,0
2018-03-24T00:44:05.815Z,0
2018-03-24T00:45:06.048Z,0
2018-03-24T00:46:06.022Z,0
2018-03-24T00:47:06.008Z,0
2018-03-24T00:48:05.721Z,0
2018-03-24T00:49:05.430Z,0
2018-03-24T00:50:05.155Z,0
2018-03-24T00:51:05.695Z,0
2018-03-24T00:52:05.676Z,0
2018-03-24T00:53:06.152Z,0
2018-03-24T00:54:05.601Z,0
2018-03-24T00:55:05.844Z,0
2018-03-24T00:56:05.286Z,0
2018-03-24T00:57:05.794Z,0
2018-03-24T00:58:06.062Z,0
2018-03-24T00:59:05.755Z,0
2018-03-24T01:00:06.000Z,0
2018-03-24T01:01:05.489Z,0
2018-03-24T01:02:05.477Z,0
2018-03-24T01:03:05.742Z,0
2018-03-24T01:04:06.001Z,0
2018-03-24T01:05:05.449Z,0
2018-03-24T01:06:05.348Z,0
2018-03-24T01:07:05.323Z,0
2018-03-24T01:08:05.865Z,0
2018-03-24T01:09:05.063Z,0
2018-03-24T01:10:05.267Z,0
2018-03-24T01:11:05.244Z,0
2018-03-24T01:12:04.978Z,0
2018-03-24T01:13:05.493Z,0
2018-03-24T01:14:05.251Z,0
2018-03-24T01:15:05.429Z,0
2018-03-24T01:16:05.196Z,0
2018-03-24T01:17:05.385Z,0
2018-03-24T01:18:05.691Z,0
2018-03-24T01:19:05.316Z,0
2018-03-24T01:20:05.056Z,0
2018-03-24T01:21:05.074Z,0
2018-03-24T01:22:05.346Z,0
2018-03-24T01:23:04.735Z,0
2018-03-24T01:24:04.953Z,0
2018-03-24T01:25:05.483Z,0
2018-03-24T01:26:05.016Z,0
2018-03-24T01:27:05.122Z,0
2018-03-24T01:28:04.968Z,0
2018-03-24T01:29:05.437Z,0
2018-03-24T01:30:05.135Z,0
2018-03-24T01:31:04.870Z,0
2018-03-24T01:32:05.150Z,0
2018-03-24T01:33:04.842Z,0
2018-03-24T01:34:05.025Z,0
2018-03-24T01:35:05.072Z,0
2018-03-24T01:36:04.986Z,0
2018-03-24T01:37:04.985Z,0
2018-03-24T01:38:04.930Z,0
2018-03-24T01:39:04.740Z,0
2018-03-24T01:40:04.926Z,0
2018-03-24T01:41:04.078Z,0
2018-03-24T01:42:04.334Z,0
2018-03-24T01:43:04.292Z,0
2018-03-24T01:44:04.551Z,0
2018-03-24T01:45:04.783Z,0
2018-03-24T01:46:04.541Z,0
2018-03-24T01:47:04.494Z,0
2018-03-24T01:48:04.520Z,0
2018-03-24T01:49:04.052Z,0
2018-03-24T01:50:04.699Z,0
2018-03-24T01:51:04.174Z,0
2018-03-24T01:52:04.627Z,0
2018-03-24T01:53:04.902Z,0
2018-03-24T01:54:04.614Z,0
2018-03-24T01:55:04.366Z,0
2018-03-24T01:56:04.018Z,0
2018-03-24T01:57:04.253Z,0
2018-03-24T01:58:04.312Z,0
2018-03-24T01:59:05.279Z,0
2018-03-24T02:00:04.212Z,0
2018-03-24T02:01:04.399Z,0
2018-03-24T02:02:04.399Z,0
2018-03-24T02:03:04.411Z,0
2018-03-24T02:04:03.875Z,0
2018-03-24T02:05:04.246Z,0
2018-03-24T02:06:04.558Z,0
2018-03-24T02:07:04.261Z,0
2018-03-24T02:08:04.474Z,0
2018-03-24T02:09:03.960Z,0
2018-03-24T02:10:04.110Z,0
2018-03-24T02:11:04.652Z,0
2018-03-24T02:12:04.685Z,0
2018-03-24T02:13:04.375Z,0
2018-03-24T02:14:04.139Z,0
2018-03-24T02:15:04.316Z,0
2018-03-24T02:16:04.375Z,0
2018-03-24T02:17:04.010Z,0
2018-03-24T02:18:03.398Z,0
2018-03-24T02:19:04.554Z,0
2018-03-24T02:20:04.258Z,0
2018-03-24T02:21:04.001Z,0
2018-03-24T02:22:04.344Z,0
2018-03-24T02:23:04.020Z,0
2018-03-24T02:24:04.201Z,0
2018-03-24T02:25:03.543Z,0
2018-03-24T02:26:03.247Z,0
2018-03-24T02:27:04.300Z,0
2018-03-24T02:28:03.438Z,0
2018-03-24T02:29:04.027Z,0
2018-03-24T02:30:03.444Z,0
2018-03-24T02:31:03.971Z,0
2018-03-24T02:32:04.027Z,0
2018-03-24T02:33:03.915Z,0
2018-03-24T02:34:04.181Z,0
2018-03-24T02:35:03.692Z,0
2018-03-24T02:36:03.688Z,0
2018-03-24T02:37:03.383Z,0
2018-03-24T02:38:03.675Z,0
2018-03-24T02:39:03.508Z,0
2018-03-24T02:40:03.736Z,0
2018-03-24T02:41:03.245Z,0
2018-03-24T02:42:03.736Z,0
2018-03-24T02:43:03.446Z,0
2018-03-24T02:44:03.803Z,0
2018-03-24T02:45:03.608Z,0
2018-03-24T02:46:04.033Z,0
2018-03-24T02:47:03.636Z,0
2018-03-24T02:48:03.016Z,0
2018-03-24T02:49:03.593Z,0
2018-03-24T02:50:03.732Z,0
2018-03-24T02:51:03.779Z,0
2018-03-24T02:52:03.189Z,0
2018-03-24T02:53:03.498Z,0
2018-03-24T02:54:03.408Z,0
2018-03-24T02:55:03.227Z,0
2018-03-24T02:56:03.312Z,0
2018-03-24T02:57:03.873Z,0
2018-03-24T02:58:03.630Z,0
2018-03-24T02:59:03.382Z,0
2018-03-24T03:00:03.040Z,0
2018-03-24T03:01:03.022Z,0
2018-03-24T03:02:03.377Z,0
2018-03-24T03:03:03.083Z,0
2018-03-24T03:04:02.527Z,0
2018-03-24T03:05:03.047Z,0
2018-03-24T03:06:02.470Z,0
2018-03-24T03:07:02.720Z,0
2018-03-24T03:08:02.422Z,0
2018-03-24T03:09:02.682Z,0
2018-03-24T03:10:03.056Z,0
2018-03-24T03:11:03.303Z,0
2018-03-24T03:12:02.070Z,0
2018-03-24T03:13:02.356Z,0
2018-03-24T03:14:02.569Z,0
2018-03-24T03:15:02.811Z,0
2018-03-24T03:16:02.557Z,0
2018-03-24T03:17:02.492Z,0
2018-03-24T03:18:02.735Z,0
2018-03-24T03:19:01.910Z,0
2018-03-24T03:20:02.423Z,0
2018-03-24T03:21:02.424Z,0
2018-03-24T03:22:02.915Z,0
2018-03-24T03:23:02.097Z,0
2018-03-24T03:24:02.329Z,0
2018-03-24T03:25:02.316Z,0
2018-03-24T03:26:02.550Z,0
2018-03-24T03:27:02.269Z,0
2018-03-24T03:28:02.998Z,0
2018-03-24T03:29:02.268Z,0
2018-03-24T03:30:02.732Z,0
2018-03-24T03:31:02.529Z,0
2018-03-24T03:32:02.500Z,0
2018-03-24T03:33:02.423Z,0
2018-03-24T03:34:02.174Z,0
2018-03-24T03:35:02.723Z,0
2018-03-24T03:36:01.546Z,0
2018-03-24T03:37:02.320Z,0
2018-03-24T03:38:02.098Z,0
2018-03-24T03:39:02.484Z,0
2018-03-24T03:40:01.994Z,0
2018-03-24T03:41:01.968Z,0
2018-03-24T03:42:01.946Z,0
2018-03-24T03:43:02.455Z,0
2018-03-24T03:44:01.974Z,0
2018-03-24T03:45:02.397Z,0
2018-03-24T03:46:01.589Z,0
2018-03-24T03:47:02.364Z,0
2018-03-24T03:48:01.862Z,0
2018-03-24T03:49:02.053Z,0
2018-03-24T03:50:02.007Z,0
2018-03-24T03:51:01.402Z,0
2018-03-24T03:52:01.703Z,0
2018-03-24T03:53:01.692Z,0
2018-03-24T03:54:01.410Z,0
2018-03-24T03:55:01.385Z,0
2018-03-24T03:56:01.637Z,0
2018-03-24T03:57:02.130Z,0
2018-03-24T03:58:01.317Z,0
2018-03-24T03:59:01.762Z,0
2018-03-24T04:00:01.797Z,0
2018-03-24T04:01:01.512Z,0
2018-03-24T04:02:01.485Z,0
2018-03-24T04:03:01.193Z,0
2018-03-24T04:04:01.705Z,0
2018-03-24T04:05:01.693Z,0
2018-03-24T04:06:01.440Z,0
2018-03-24T04:07:01.899Z,0
2018-03-24T04:08:01.625Z,0
2018-03-24T04:09:01.865Z,0
2018-03-24T04:10:01.304Z,0
2018-03-24T04:11:00.745Z,0
2018-03-24T04:12:01.270Z,0
2018-03-24T04:13:01.236Z,0
2018-03-24T04:14:01.743Z,0
2018-03-24T04:15:01.537Z,0
2018-03-24T04:16:00.895Z,0
2018-03-24T04:17:01.145Z,0
2018-03-24T04:18:01.393Z,0
2018-03-24T04:19:00.826Z,0
2018-03-24T04:20:01.070Z,0
2018-03-24T04:21:01.249Z,0
2018-03-24T04:22:01.292Z,0
2018-03-24T04:23:01.264Z,0
2018-03-24T04:24:00.990Z,0
2018-03-24T04:25:01.222Z,0
2018-03-24T04:26:00.949Z,0
2018-03-24T04:27:01.183Z,0
2018-03-24T04:28:00.701Z,0
2018-03-24T04:29:00.615Z,0
2018-03-24T04:30:00.662Z,0
2018-03-24T04:31:00.881Z,0
2018-03-24T04:32:01.131Z,0
2018-03-24T04:33:01.098Z,0
2018-03-24T04:34:01.330Z,0
2018-03-24T04:35:01.361Z,0
2018-03-24T04:36:00.501Z,0
2018-03-24T04:37:00.732Z,0
2018-03-24T04:38:00.480Z,0
2018-03-24T04:39:00.415Z,0
2018-03-24T04:40:00.617Z,0
2018-03-24T04:41:00.871Z,0
2018-03-24T04:42:00.868Z,0
2018-03-24T04:43:00.566Z,0
2018-03-24T04:44:00.880Z,0
2018-03-24T04:45:00.571Z,0
2018-03-24T04:46:00.770Z,0
2018-03-24T04:47:00.201Z,0
2018-03-24T04:48:00.170Z,0
2018-03-24T04:49:00.859Z,0
2018-03-24T04:50:00.120Z,0
2018-03-24T04:51:00.396Z,0
2018-03-24T04:52:01.138Z,0
2018-03-24T04:53:01.076Z,0
2018-03-24T04:54:00.312Z,0
2018-03-24T04:55:00.012Z,0
2018-03-24T04:56:00.849Z,0
2018-03-24T04:57:00.259Z,0
2018-03-24T04:58:00.024Z,0
2018-03-24T04:58:59.657Z,0
2018-03-24T05:00:00.245Z,0
2018-03-24T05:01:00.140Z,0
2018-03-24T05:01:59.852Z,0
2018-03-24T05:02:59.835Z,0
2018-03-24T05:04:00.761Z,0
2018-03-24T05:04:59.785Z,0
2018-03-24T05:06:00.479Z,0
2018-03-24T05:06:59.998Z,0
2018-03-24T05:07:59.705Z,0
2018-03-24T05:08:59.686Z,0
2018-03-24T05:09:59.955Z,0
2018-03-24T05:11:00.428Z,0
2018-03-24T05:12:00.170Z,0
2018-03-24T05:13:00.177Z,0
2018-03-24T05:14:00.096Z,0
2018-03-24T05:14:59.822Z,0
2018-03-24T05:16:00.100Z,0
2018-03-24T05:16:59.770Z,0
2018-03-24T05:17:59.742Z,0
2018-03-24T05:19:00.268Z,0
2018-03-24T05:19:59.972Z,0
2018-03-24T05:21:00.039Z,0
2018-03-24T05:21:59.952Z,0
2018-03-24T05:23:00.185Z,5
2018-03-24T05:23:59.870Z,5
2018-03-24T05:24:59.580Z,5
2018-03-24T05:25:59.350Z,5
2018-03-24T05:26:59.695Z,5
2018-03-24T05:27:59.514Z,5
2018-03-24T05:28:59.233Z,5
2018-03-24T05:29:59.462Z,5
2018-03-24T05:30:59.186Z,5
2018-03-24T05:32:00.025Z,10
2018-03-24T05:32:59.491Z,10
2018-03-24T05:33:59.652Z,10
2018-03-24T05:34:59.352Z,10
2018-03-24T05:35:59.586Z,10
2018-03-24T05:36:59.775Z,10
2018-03-24T05:37:59.283Z,10
2018-03-24T05:38:58.761Z,15
2018-03-24T05:39:59.770Z,15
2018-03-24T05:40:58.947Z,15
2018-03-24T05:41:59.715Z,15
2018-03-24T05:42:59.164Z,15
2018-03-24T05:43:58.872Z,20
2018-03-24T05:44:59.173Z,20
2018-03-24T05:45:59.363Z,20
2018-03-24T05:46:59.401Z,20
2018-03-24T05:47:58.782Z,20
2018-03-24T05:48:58.762Z,20
2018-03-24T05:49:58.732Z,25
2018-03-24T05:50:58.723Z,25
2018-03-24T05:51:59.326Z,25
2018-03-24T05:52:59.208Z,25
2018-03-24T05:53:58.643Z,25
2018-03-24T05:54:58.621Z,25
2018-03-24T05:55:58.861Z,25
2018-03-24T05:56:58.840Z,25
2018-03-24T05:57:59.083Z,30
2018-03-24T05:59:31.127Z,30
2018-03-24T05:59:59.034Z,30
2018-03-24T06:00:59.009Z,30
2018-03-24T06:01:58.997Z,30
2018-03-24T06:02:58.697Z,35
2018-03-24T06:03:58.409Z,35
2018-03-24T06:04:58.648Z,35
2018-03-24T06:05:58.632Z,35
2018-03-24T06:06:58.604Z,40
2018-03-24T06:07:58.580Z,40
2018-03-24T06:08:58.829Z,40
2018-03-24T06:09:58.002Z,40
2018-03-24T06:10:58.250Z,40
2018-03-24T06:11:58.223Z,40
2018-03-24T06:12:58.478Z,40
2018-03-24T06:13:58.179Z,40
2018-03-24T06:14:58.964Z,40
2018-03-24T06:15:58.411Z,40
2018-03-24T06:16:58.384Z,40
2018-03-24T06:17:58.091Z,45
2018-03-24T06:18:58.600Z,45
2018-03-24T06:19:58.565Z,45
2018-03-24T06:20:58.815Z,45
2018-03-24T06:21:58.521Z,45
2018-03-24T06:22:58.503Z,45
2018-03-24T06:23:58.469Z,45
2018-03-24T06:24:58.193Z,45
2018-03-24T06:25:58.250Z,50
2018-03-24T06:26:58.135Z,50
2018-03-24T06:27:58.383Z,50
2018-03-24T06:28:58.117Z,55
2018-03-24T06:29:58.076Z,55
2018-03-24T06:30:57.788Z,60
2018-03-24T06:31:58.031Z,60
2018-03-24T06:32:57.743Z,60
2018-03-24T06:33:58.258Z,60
2018-03-24T06:34:57.706Z,65
2018-03-24T06:35:57.945Z,65
2018-03-24T06:36:57.933Z,65
2018-03-24T06:37:57.898Z,65
2018-03-24T06:38:58.183Z,65
2018-03-24T06:39:57.860Z,65
2018-03-24T06:40:57.293Z,70
2018-03-24T06:41:58.104Z,70
2018-03-24T06:42:57.521Z,70
2018-03-24T06:43:58.026Z,70
2018-03-24T06:44:58.715Z,75
2018-03-24T06:45:57.720Z,75
2018-03-24T06:46:58.226Z,75
2018-03-24T06:47:57.935Z,80
2018-03-24T06:48:57.905Z,75
2018-03-24T06:49:57.888Z,80
2018-03-24T06:50:57.619Z,80
2018-03-24T06:51:57.316Z,80
2018-03-24T06:52:57.829Z,80
2018-03-24T06:53:57.542Z,80
2018-03-24T06:54:57.808Z,80
2018-03-24T06:55:57.241Z,85
2018-03-24T06:56:57.742Z,85
2018-03-24T06:57:58.019Z,90
2018-03-24T06:58:57.174Z,90
2018-03-24T06:59:57.409Z,90
2018-03-24T07:00:57.392Z,90
2018-03-24T07:01:57.380Z,95
2018-03-24T07:02:57.341Z,95
2018-03-24T07:03:57.317Z,95
2018-03-24T07:04:57.567Z,100
2018-03-24T07:05:57.285Z,105
2018-03-24T07:06:57.791Z,110
2018-03-24T07:07:57.804Z,110
2018-03-24T07:08:56.942Z,110
2018-03-24T07:09:57.181Z,110
2018-03-24T07:10:56.889Z,110
2018-03-24T07:11:57.134Z,115
2018-03-24T07:12:56.600Z,120
2018-03-24T07:13:57.097Z,130
2018-03-24T07:14:57.351Z,140
2018-03-24T07:15:57.358Z,145
2018-03-24T07:16:57.574Z,150
2018-03-24T07:17:57.006Z,150
2018-03-24T07:18:57.531Z,150
2018-03-24T07:19:57.234Z,150
2018-03-24T07:20:56.945Z,150
2018-03-24T07:21:56.943Z,155
2018-03-24T07:22:56.901Z,160
2018-03-24T07:23:57.153Z,150
2018-03-24T07:24:56.865Z,150
2018-03-24T07:25:57.116Z,155
2018-03-24T07:26:56.812Z,155
2018-03-24T07:27:57.327Z,155
2018-03-24T07:28:57.486Z,150
2018-03-24T07:29:56.501Z,155
2018-03-24T07:30:56.731Z,160
2018-03-24T07:31:56.994Z,160
2018-03-24T07:32:56.977Z,160
2018-03-24T07:33:56.763Z,165
2018-03-24T07:34:56.925Z,175
2018-03-24T07:35:56.355Z,180
2018-03-24T07:36:56.869Z,185
2018-03-24T07:37:57.257Z,190
2018-03-24T07:38:56.570Z,195
2018-03-24T07:39:56.275Z,200
2018-03-24T07:40:56.524Z,200
2018-03-24T07:41:56.511Z,200
2018-03-24T07:42:56.474Z,210
2018-03-24T07:43:56.747Z,205
2018-03-24T07:44:56.490Z,205
2018-03-24T07:45:56.158Z,205
2018-03-24T07:46:56.460Z,195
2018-03-24T07:47:56.113Z,180
2018-03-24T07:48:56.090Z,175
2018-03-24T07:49:56.614Z,170
2018-03-24T07:50:56.329Z,165
2018-03-24T07:51:56.571Z,165
2018-03-24T07:52:56.020Z,170
2018-03-24T07:53:56.319Z,170
2018-03-24T07:54:56.238Z,170
2018-03-24T07:55:56.225Z,170
2018-03-24T07:56:56.469Z,170
2018-03-24T07:57:56.451Z,170
2018-03-24T07:58:56.565Z,170
2018-03-24T07:59:55.619Z,170
2018-03-24T08:00:56.390Z,170
2018-03-24T08:01:55.854Z,170
2018-03-24T08:02:56.081Z,170
2018-03-24T08:03:56.061Z,170
2018-03-24T08:04:56.326Z,165
2018-03-24T08:05:55.496Z,160
2018-03-24T08:06:55.465Z,160
2018-03-24T08:07:56.262Z,160
2018-03-24T08:08:55.976Z,160
2018-03-24T08:09:55.711Z,160
2018-03-24T08:10:55.973Z,160
2018-03-24T08:11:55.633Z,165
2018-03-24T08:12:55.907Z,165
2018-03-24T08:13:55.600Z,170
2018-03-24T08:14:56.122Z,170
2018-03-24T08:15:56.409Z,170
2018-03-24T08:16:55.911Z,180
2018-03-24T08:17:55.794Z,195
2018-03-24T08:18:56.046Z,265
2018-03-24T08:19:55.493Z,465
2018-03-24T08:20:56.268Z,530
2018-03-24T08:21:56.249Z,515
2018-03-24T08:22:56.015Z,465
2018-03-24T08:23:55.685Z,435
2018-03-24T08:24:55.664Z,430
2018-03-24T08:25:55.915Z,470
2018-03-24T08:26:55.358Z,460
2018-03-24T08:27:55.878Z,485
2018-03-24T08:28:55.328Z,520
2018-03-24T08:29:55.313Z,555
2018-03-24T08:30:55.556Z,585
2018-03-24T08:31:55.800Z,535
2018-03-24T08:32:55.818Z,475
2018-03-24T08:33:55.794Z,500
2018-03-24T08:34:55.497Z,565
2018-03-24T08:35:55.480Z,625
2018-03-24T08:36:55.736Z,595
2018-03-24T08:37:55.706Z,480
2018-03-24T08:38:55.432Z,495
2018-03-24T08:39:55.683Z,485
2018-03-24T08:40:55.926Z,540
2018-03-24T08:41:55.180Z,640
2018-03-24T08:42:55.644Z,595
2018-03-24T08:43:55.354Z,540
2018-03-24T08:44:55.347Z,585
2018-03-24T08:45:55.380Z,575
2018-03-24T08:46:55.330Z,575
2018-03-24T08:47:55.312Z,695
2018-03-24T08:48:55.832Z,720
2018-03-24T08:49:55.547Z,770
2018-03-24T08:50:55.000Z,840
2018-03-24T08:51:55.255Z,820
2018-03-24T08:52:54.979Z,715
2018-03-24T08:53:55.494Z,635
2018-03-24T08:54:55.215Z,595
2018-03-24T08:55:54.941Z,510
2018-03-24T08:56:54.937Z,510
2018-03-24T08:57:55.195Z,510
2018-03-24T08:58:55.176Z,460
2018-03-24T08:59:55.151Z,435
2018-03-24T09:00:55.685Z,485
2018-03-24T09:01:55.414Z,445
2018-03-24T09:02:55.658Z,425
2018-03-24T09:03:55.116Z,410
2018-03-24T09:04:55.639Z,390
2018-03-24T09:05:55.634Z,315
2018-03-24T09:06:55.346Z,300
2018-03-24T09:07:55.137Z,285
2018-03-24T09:08:55.144Z,300
2018-03-24T09:09:55.050Z,325
2018-03-24T09:10:55.572Z,355
2018-03-24T09:11:55.291Z,440
2018-03-24T09:12:55.275Z,510
2018-03-24T09:13:55.531Z,570
2018-03-24T09:14:55.248Z,640
2018-03-24T09:15:54.445Z,665
2018-03-24T09:16:54.695Z,635
2018-03-24T09:17:55.210Z,550
2018-03-24T09:18:54.407Z,540
2018-03-24T09:19:54.930Z,525
2018-03-24T09:20:55.456Z,485
2018-03-24T09:21:55.439Z,425
2018-03-24T09:22:54.895Z,400
2018-03-24T09:23:54.882Z,555
2018-03-24T09:24:54.861Z,690
2018-03-24T09:25:54.856Z,600
2018-03-24T09:26:55.106Z,590
2018-03-24T09:27:55.159Z,545
2018-03-24T09:28:54.559Z,440
2018-03-24T09:29:54.812Z,455
2018-03-24T09:30:54.794Z,530
2018-03-24T09:31:55.065Z,670
2018-03-24T09:32:54.772Z,505
2018-03-24T09:33:55.088Z,465
2018-03-24T09:34:54.769Z,435
2018-03-24T09:35:54.868Z,425
2018-03-24T09:36:54.993Z,450
2018-03-24T09:37:54.451Z,520
2018-03-24T09:38:54.716Z,600
2018-03-24T09:39:54.959Z,520
2018-03-24T09:40:54.706Z,435
2018-03-24T09:41:54.670Z,475
2018-03-24T09:42:54.418Z,610
2018-03-24T09:43:54.388Z,680
2018-03-24T09:44:54.366Z,530
2018-03-24T09:45:54.615Z,425
2018-03-24T09:46:54.402Z,360
2018-03-24T09:47:54.862Z,510
2018-03-24T09:48:54.327Z,950
2018-03-24T09:49:54.836Z,870
2018-03-24T09:50:54.835Z,650
2018-03-24T09:51:54.875Z,690
2018-03-24T09:52:54.019Z,875
2018-03-24T09:53:55.076Z,910
2018-03-24T09:54:54.802Z,900
2018-03-24T09:55:54.780Z,965
2018-03-24T09:56:54.982Z,830
2018-03-24T09:57:54.505Z,820
2018-03-24T09:58:54.759Z,715
2018-03-24T09:59:54.471Z,505
2018-03-24T10:00:54.729Z,675
2018-03-24T10:01:54.996Z,775
2018-03-24T10:02:54.704Z,560
2018-03-24T10:03:54.969Z,550
2018-03-24T10:04:54.430Z,605
2018-03-24T10:05:54.420Z,525
2018-03-24T10:06:54.407Z,560
2018-03-24T10:07:54.128Z,795
2018-03-24T10:08:54.659Z,940
2018-03-24T10:09:54.373Z,935
2018-03-24T10:10:54.904Z,925
2018-03-24T10:11:54.639Z,955
2018-03-24T10:12:54.363Z,790
2018-03-24T10:13:54.341Z,710
2018-03-24T10:14:54.879Z,540
2018-03-24T10:15:54.587Z,420
2018-03-24T10:16:54.045Z,455
2018-03-24T10:17:54.038Z,655
2018-03-24T10:18:54.571Z,825
2018-03-24T10:19:54.298Z,895
2018-03-24T10:20:54.012Z,810
2018-03-24T10:21:54.269Z,750
2018-03-24T10:22:54.007Z,775
2018-03-24T10:23:54.270Z,720
2018-03-24T10:24:54.036Z,780
2018-03-24T10:25:54.243Z,810
2018-03-24T10:26:54.247Z,1145
2018-03-24T10:27:53.962Z,1120
2018-03-24T10:28:54.539Z,1180
2018-03-24T10:29:54.476Z,405
2018-03-24T10:30:54.206Z,400
2018-03-24T10:31:54.465Z,425
2018-03-24T10:32:54.451Z,1125
2018-03-24T10:33:53.649Z,1180
2018-03-24T10:34:53.897Z,415
2018-03-24T10:35:54.162Z,600
2018-03-24T10:36:54.148Z,380
2018-03-24T10:37:54.232Z,385
2018-03-24T10:38:54.137Z,395
2018-03-24T10:39:54.738Z,565
2018-03-24T10:40:53.857Z,950
2018-03-24T10:41:54.385Z,1080
2018-03-24T10:42:53.853Z,1055
2018-03-24T10:43:54.095Z,850
2018-03-24T10:44:54.092Z,750
2018-03-24T10:45:54.374Z,840
2018-03-24T10:46:54.080Z,470
2018-03-24T10:47:54.333Z,405
2018-03-24T10:48:53.790Z,745
2018-03-24T10:49:54.618Z,405
2018-03-24T10:50:53.777Z,400
2018-03-24T10:51:54.028Z,380
2018-03-24T10:52:53.766Z,350
2018-03-24T10:53:54.026Z,315
2018-03-24T10:54:54.067Z,290
2018-03-24T10:55:53.739Z,280
2018-03-24T10:56:54.256Z,305
2018-03-24T10:57:54.253Z,995
2018-03-24T10:58:54.246Z,495
2018-03-24T10:59:53.721Z,995
2018-03-24T11:00:54.228Z,1170
2018-03-24T11:01:54.224Z,525
2018-03-24T11:02:53.946Z,905
2018-03-24T11:03:53.659Z,400
2018-03-24T11:04:53.917Z,365
2018-03-24T11:05:53.652Z,360
2018-03-24T11:06:54.163Z,415
2018-03-24T11:07:53.890Z,1315
2018-03-24T11:08:54.150Z,1395
2018-03-24T11:09:54.142Z,1370
2018-03-24T11:10:53.600Z,1295
2018-03-24T11:11:53.866Z,1075
2018-03-24T11:12:53.845Z,1015
2018-03-24T11:13:54.116Z,410
2018-03-24T11:14:54.111Z,365
2018-03-24T11:15:53.562Z,385
2018-03-24T11:16:53.561Z,430
2018-03-24T11:17:53.543Z,1300
2018-03-24T11:18:53.807Z,465
2018-03-24T11:19:54.136Z,1295
2018-03-24T11:20:53.801Z,505
2018-03-24T11:21:53.795Z,445
2018-03-24T11:22:54.049Z,485
2018-03-24T11:23:54.048Z,475
2018-03-24T11:24:54.038Z,1165
2018-03-24T11:25:54.039Z,410
2018-03-24T11:26:54.023Z,370
2018-03-24T11:27:53.754Z,345
2018-03-24T11:28:53.754Z,340
2018-03-24T11:29:53.743Z,335
2018-03-24T11:30:53.752Z,330
2018-03-24T11:31:53.768Z,330
2018-03-24T11:32:53.989Z,340
2018-03-24T11:33:54.098Z,350
2018-03-24T11:34:54.249Z,355
2018-03-24T11:35:53.181Z,380
2018-03-24T11:36:53.996Z,440
2018-03-24T11:37:53.424Z,1020
2018-03-24T11:38:53.200Z,1040
2018-03-24T11:39:53.688Z,1160
2018-03-24T11:40:53.673Z,1270
2018-03-24T11:41:53.928Z,1305
2018-03-24T11:42:53.657Z,565
2018-03-24T11:43:53.661Z,460
2018-03-24T11:44:54.241Z,390
2018-03-24T11:45:53.366Z,340
2018-03-24T11:46:53.623Z,315
2018-03-24T11:47:53.623Z,310
2018-03-24T11:48:53.874Z,310
2018-03-24T11:49:53.611Z,305
2018-03-24T11:50:53.601Z,305
2018-03-24T11:51:54.121Z,315
2018-03-24T11:52:53.599Z,305
2018-03-24T11:53:53.580Z,300
2018-03-24T11:54:53.578Z,285
2018-03-24T11:55:53.295Z,280
2018-03-24T11:56:54.090Z,280
2018-03-24T11:57:53.914Z,275
2018-03-24T11:58:54.084Z,280
2018-03-24T11:59:53.737Z,285
2018-03-24T12:00:53.258Z,300
2018-03-24T12:01:53.814Z,315
2018-03-24T12:02:53.784Z,330
2018-03-24T12:03:54.030Z,355
2018-03-24T12:04:53.221Z,365
2018-03-24T12:05:53.491Z,350
2018-03-24T12:06:53.734Z,345
2018-03-24T12:07:53.469Z,325
2018-03-24T12:08:53.201Z,305
2018-03-24T12:09:52.908Z,280
2018-03-24T12:10:53.968Z,270
2018-03-24T12:11:53.224Z,275
2018-03-24T12:12:53.765Z,270
2018-03-24T12:13:53.951Z,270
2018-03-24T12:14:53.208Z,270
2018-03-24T12:15:53.146Z,260
2018-03-24T12:16:53.787Z,255
2018-03-24T12:17:53.423Z,255
2018-03-24T12:18:53.423Z,255
2018-03-24T12:19:53.069Z,265
2018-03-24T12:20:53.626Z,275
2018-03-24T12:21:53.613Z,275
2018-03-24T12:22:53.354Z,275
2018-03-24T12:23:53.042Z,275
2018-03-24T12:24:53.342Z,280
2018-03-24T12:25:53.028Z,290
2018-03-24T12:26:53.004Z,300
2018-03-24T12:27:53.512Z,320
2018-03-24T12:28:53.725Z,360
2018-03-24T12:29:53.503Z,350
2018-03-24T12:30:53.706Z,355
2018-03-24T12:31:52.942Z,365
2018-03-24T12:32:54.074Z,375
2018-03-24T12:33:52.965Z,390
2018-03-24T12:34:53.592Z,390
2018-03-24T12:35:53.473Z,390
2018-03-24T12:36:53.229Z,385
2018-03-24T12:37:53.217Z,400
2018-03-24T12:38:53.392Z,415
2018-03-24T12:39:53.604Z,480
2018-03-24T12:40:53.387Z,475
2018-03-24T12:41:53.127Z,500
2018-03-24T12:42:53.259Z,495
2018-03-24T12:43:52.881Z,495
2018-03-24T12:44:52.553Z,495
2018-03-24T12:45:52.540Z,535
2018-03-24T12:46:52.821Z,515
2018-03-24T12:47:52.793Z,560
2018-03-24T12:48:53.060Z,595
2018-03-24T12:49:52.489Z,650
2018-03-24T12:50:53.203Z,640
2018-03-24T12:51:53.268Z,1120
2018-03-24T12:52:53.012Z,855
2018-03-24T12:53:53.090Z,1200
2018-03-24T12:54:53.288Z,770
2018-03-24T12:55:52.709Z,1035
2018-03-24T12:56:53.216Z,1515
2018-03-24T12:57:53.205Z,595
2018-03-24T12:58:53.218Z,655
2018-03-24T12:59:53.633Z,560
2018-03-24T13:00:53.237Z,640
2018-03-24T13:01:53.125Z,560
2018-03-24T13:02:53.258Z,570
2018-03-24T13:03:52.990Z,545
2018-03-24T13:04:53.575Z,560
2018-03-24T13:05:52.636Z,540
2018-03-24T13:06:53.216Z,555
2018-03-24T13:07:52.596Z,630
2018-03-24T13:08:52.589Z,635
2018-03-24T13:09:52.876Z,605
2018-03-24T13:10:53.213Z,590
2018-03-24T13:11:52.564Z,545
2018-03-24T13:12:53.116Z,490
2018-03-24T13:13:52.560Z,480
2018-03-24T13:14:53.114Z,470
2018-03-24T13:15:53.064Z,480
2018-03-24T13:16:52.822Z,540
2018-03-24T13:17:52.789Z,1500
2018-03-24T13:18:53.185Z,660
2018-03-24T13:19:52.840Z,685
2018-03-24T13:20:53.080Z,640
2018-03-24T13:21:52.784Z,590
2018-03-24T13:22:53.022Z,575
2018-03-24T13:23:52.826Z,520
2018-03-24T13:24:53.001Z,500
2018-03-24T13:25:52.732Z,505
2018-03-24T13:26:53.043Z,485
2018-03-24T13:27:52.863Z,500
2018-03-24T13:28:52.988Z,540
2018-03-24T13:29:52.964Z,625
2018-03-24T13:30:52.739Z,810
2018-03-24T13:31:53.229Z,585
2018-03-24T13:32:53.082Z,520
2018-03-24T13:33:53.244Z,520
2018-03-24T13:34:53.256Z,530
2018-03-24T13:35:53.277Z,465
2018-03-24T13:36:53.198Z,465
2018-03-24T13:37:52.581Z,605
2018-03-24T13:38:52.646Z,500
2018-03-24T13:39:52.675Z,735
2018-03-24T13:40:52.838Z,530
2018-03-24T13:41:53.043Z,435
2018-03-24T13:42:52.880Z,380
2018-03-24T13:43:52.663Z,355
2018-03-24T13:44:53.130Z,360
2018-03-24T13:45:52.679Z,435
2018-03-24T13:46:53.363Z,635
2018-03-24T13:47:52.581Z,400
2018-03-24T13:48:52.871Z,485
2018-03-24T13:49:52.559Z,365
2018-03-24T13:50:52.552Z,315
2018-03-24T13:51:52.539Z,310
2018-03-24T13:52:52.579Z,295
2018-03-24T13:53:52.354Z,275
2018-03-24T13:54:53.216Z,255
2018-03-24T13:55:52.809Z,255
2018-03-24T13:56:52.814Z,255
2018-03-24T13:57:52.223Z,260
2018-03-24T13:58:52.591Z,260
2018-03-24T13:59:52.950Z,265
2018-03-24T14:00:52.465Z,265
2018-03-24T14:01:52.741Z,260
2018-03-24T14:02:52.720Z,265
2018-03-24T14:03:52.247Z,250
2018-03-24T14:04:52.679Z,240
2018-03-24T14:05:52.415Z,230
2018-03-24T14:06:52.404Z,220
2018-03-24T14:07:52.662Z,215
2018-03-24T14:08:52.383Z,215
2018-03-24T14:09:52.921Z,215
2018-03-24T14:10:52.376Z,220